YSSY/SYD METAR and TAF weather

Enter ICAO airport designator
Station Type Date Time Source
YSSY METAR 2019/10/15 18:30 UTC NOAA

YSSY 151830Z 18017KT 9999 SCT008 SCT150 BKN220 18/17 Q1011


Station Type Date Time Source
YSSY Decoded METAR 2019/10/15 18:30 UTC NOAA

Sydney Airport, Australia (YSSY) 33-57S 151-11E 3M
Oct 15, 2019 - 02:30 PM EDT / 2019.10.15 1830 UTC
Wind: from the S (180 degrees) at 20 MPH (17 KT):0
Visibility: greater than 7 mile(s):0
Sky conditions: mostly cloudy
Temperature: 64 F (18 C)
Dew Point: 62 F (17 C)
Relative Humidity: 93%
Pressure (altimeter): 29.85 in. Hg (1011 hPa)
ob: YSSY 151830Z 18017KT 9999 SCT008 SCT150 BKN220 18/17 Q1011
cycle: 18

Station Type Date Time Source
YSSY TAF 2019/10/15 18:03 UTC NOAA

TAF YSSY 151643Z 1518/1624 18015KT 9999 HZ FEW006 BKN008
FM152200 16013KT 9999 SCT015
FM160100 12013KT 9999 FEW030
FM160800 04010KT 9999 FEW020 BKN100
FM161200 33008KT 9999 -RA SCT010 SCT020
FM162000 27015KT CAVOK

Example: see airport list